sensor_id;sensor_type;location;lat;lon;timestamp;P1;durP1;ratioP1;P2;durP2;ratioP2
3343;SDS011;1685;53.104;8.228;2022-11-15T00:01:45;30.20;;;19.00;;
3343;SDS011;1685;53.104;8.228;2022-11-15T00:04:12;31.57;;;19.63;;
3343;SDS011;1685;53.104;8.228;2022-11-15T00:06:41;26.63;;;18.87;;
3343;SDS011;1685;53.104;8.228;2022-11-15T00:09:08;27.90;;;19.20;;
3343;SDS011;1685;53.104;8.228;2022-11-15T00:11:35;29.37;;;19.43;;
3343;SDS011;1685;53.104;8.228;2022-11-15T00:14:02;30.53;;;19.80;;
3343;SDS011;1685;53.104;8.228;2022-11-15T00:16:29;30.73;;;20.07;;
3343;SDS011;1685;53.104;8.228;2022-11-15T00:18:56;27.30;;;19.10;;
3343;SDS011;1685;53.104;8.228;2022-11-15T00:21:23;26.87;;;18.97;;
3343;SDS011;1685;53.104;8.228;2022-11-15T00:23:51;29.97;;;18.97;;
3343;SDS011;1685;53.104;8.228;2022-11-15T00:26:18;30.67;;;20.37;;
3343;SDS011;1685;53.104;8.228;2022-11-15T00:28:45;28.53;;;19.60;;
3343;SDS011;1685;53.104;8.228;2022-11-15T00:31:13;29.57;;;18.50;;
3343;SDS011;1685;53.104;8.228;2022-11-15T00:33:42;29.70;;;20.07;;
3343;SDS011;1685;53.104;8.228;2022-11-15T00:36:09;27.57;;;18.67;;
3343;SDS011;1685;53.104;8.228;2022-11-15T00:38:37;28.77;;;19.10;;
3343;SDS011;1685;53.104;8.228;2022-11-15T00:41:06;32.37;;;20.30;;
3343;SDS011;1685;53.104;8.228;2022-11-15T00:43:33;30.80;;;19.77;;
3343;SDS011;1685;53.104;8.228;2022-11-15T00:46:00;28.10;;;18.37;;
3343;SDS011;1685;53.104;8.228;2022-11-15T00:48:28;31.57;;;19.80;;
3343;SDS011;1685;53.104;8.228;2022-11-15T00:50:55;32.53;;;20.80;;
3343;SDS011;1685;53.104;8.228;2022-11-15T00:53:22;29.33;;;18.43;;
3343;SDS011;1685;53.104;8.228;2022-11-15T00:55:49;30.07;;;20.17;;
3343;SDS011;1685;53.104;8.228;2022-11-15T00:58:17;24.83;;;18.27;;
3343;SDS011;1685;53.104;8.228;2022-11-15T01:00:44;28.67;;;18.17;;
3343;SDS011;1685;53.104;8.228;2022-11-15T01:03:11;31.10;;;19.40;;
3343;SDS011;1685;53.104;8.228;2022-11-15T01:05:38;28.30;;;18.90;;
3343;SDS011;1685;53.104;8.228;2022-11-15T01:08:05;28.60;;;18.80;;
3343;SDS011;1685;53.104;8.228;2022-11-15T01:10:32;25.33;;;18.13;;
3343;SDS011;1685;53.104;8.228;2022-11-15T01:12:59;27.50;;;18.80;;
3343;SDS011;1685;53.104;8.228;2022-11-15T01:15:28;28.50;;;18.90;;
3343;SDS011;1685;53.104;8.228;2022-11-15T01:17:54;31.30;;;19.83;;
3343;SDS011;1685;53.104;8.228;2022-11-15T01:20:21;33.27;;;19.00;;
3343;SDS011;1685;53.104;8.228;2022-11-15T01:22:48;28.47;;;18.97;;
3343;SDS011;1685;53.104;8.228;2022-11-15T01:25:16;34.83;;;20.90;;
3343;SDS011;1685;53.104;8.228;2022-11-15T01:27:43;27.13;;;18.40;;
3343;SDS011;1685;53.104;8.228;2022-11-15T01:30:10;32.20;;;19.07;;
3343;SDS011;1685;53.104;8.228;2022-11-15T01:32:38;27.47;;;18.30;;
3343;SDS011;1685;53.104;8.228;2022-11-15T01:35:05;26.23;;;19.60;;
3343;SDS011;1685;53.104;8.228;2022-11-15T01:37:32;28.37;;;19.00;;
3343;SDS011;1685;53.104;8.228;2022-11-15T01:39:59;27.30;;;18.07;;
3343;SDS011;1685;53.104;8.228;2022-11-15T01:42:26;28.07;;;18.30;;
3343;SDS011;1685;53.104;8.228;2022-11-15T01:44:53;30.23;;;18.33;;
3343;SDS011;1685;53.104;8.228;2022-11-15T01:47:21;24.97;;;16.33;;
3343;SDS011;1685;53.104;8.228;2022-11-15T01:49:54;28.30;;;19.47;;
3343;SDS011;1685;53.104;8.228;2022-11-15T01:52:24;27.03;;;18.73;;
3343;SDS011;1685;53.104;8.228;2022-11-15T01:54:54;30.97;;;18.70;;
3343;SDS011;1685;53.104;8.228;2022-11-15T01:57:24;30.63;;;18.40;;
3343;SDS011;1685;53.104;8.228;2022-11-15T01:59:51;26.37;;;18.73;;
3343;SDS011;1685;53.104;8.228;2022-11-15T02:02:18;35.80;;;19.30;;
3343;SDS011;1685;53.104;8.228;2022-11-15T02:04:46;29.90;;;18.73;;
3343;SDS011;1685;53.104;8.228;2022-11-15T02:07:15;31.73;;;19.67;;
3343;SDS011;1685;53.104;8.228;2022-11-15T02:09:43;28.93;;;20.00;;
3343;SDS011;1685;53.104;8.228;2022-11-15T02:12:10;31.10;;;20.80;;
3343;SDS011;1685;53.104;8.228;2022-11-15T02:14:40;33.80;;;20.10;;
3343;SDS011;1685;53.104;8.228;2022-11-15T02:17:14;44.50;;;18.93;;
3343;SDS011;1685;53.104;8.228;2022-11-15T02:23:08;26.10;;;18.07;;
3343;SDS011;1685;53.104;8.228;2022-11-15T02:25:53;35.13;;;20.10;;
3343;SDS011;1685;53.104;8.228;2022-11-15T02:28:30;28.20;;;19.80;;
3343;SDS011;1685;53.104;8.228;2022-11-15T02:31:19;32.20;;;20.53;;
3343;SDS011;1685;53.104;8.228;2022-11-15T02:33:56;30.20;;;20.77;;
3343;SDS011;1685;53.104;8.228;2022-11-15T02:36:31;34.53;;;21.20;;
3343;SDS011;1685;53.104;8.228;2022-11-15T02:39:07;33.80;;;20.00;;
3343;SDS011;1685;53.104;8.228;2022-11-15T02:41:42;32.20;;;20.47;;
3343;SDS011;1685;53.104;8.228;2022-11-15T02:44:14;30.73;;;20.27;;
3343;SDS011;1685;53.104;8.228;2022-11-15T02:46:45;48.50;;;19.97;;
3343;SDS011;1685;53.104;8.228;2022-11-15T02:49:33;34.47;;;20.30;;
3343;SDS011;1685;53.104;8.228;2022-11-15T02:52:01;37.17;;;19.80;;
3343;SDS011;1685;53.104;8.228;2022-11-15T02:54:28;31.83;;;20.60;;
3343;SDS011;1685;53.104;8.228;2022-11-15T02:56:58;36.60;;;22.10;;
3343;SDS011;1685;53.104;8.228;2022-11-15T03:02:35;32.60;;;20.07;;
3343;SDS011;1685;53.104;8.228;2022-11-15T03:05:25;33.80;;;20.43;;
3343;SDS011;1685;53.104;8.228;2022-11-15T03:07:58;36.33;;;22.00;;
3343;SDS011;1685;53.104;8.228;2022-11-15T03:10:32;39.37;;;20.20;;
3343;SDS011;1685;53.104;8.228;2022-11-15T03:13:10;35.73;;;20.73;;
3343;SDS011;1685;53.104;8.228;2022-11-15T03:15:47;25.70;;;18.63;;
3343;SDS011;1685;53.104;8.228;2022-11-15T03:18:23;32.40;;;21.10;;
3343;SDS011;1685;53.104;8.228;2022-11-15T03:20:55;37.70;;;21.43;;
3343;SDS011;1685;53.104;8.228;2022-11-15T03:23:25;33.80;;;21.87;;
3343;SDS011;1685;53.104;8.228;2022-11-15T03:25:53;33.00;;;20.47;;
3343;SDS011;1685;53.104;8.228;2022-11-15T03:28:22;30.93;;;21.03;;
3343;SDS011;1685;53.104;8.228;2022-11-15T03:30:52;32.27;;;18.73;;
3343;SDS011;1685;53.104;8.228;2022-11-15T03:33:22;34.57;;;20.60;;
3343;SDS011;1685;53.104;8.228;2022-11-15T03:35:49;35.30;;;19.90;;
3343;SDS011;1685;53.104;8.228;2022-11-15T03:38:19;33.27;;;19.93;;
3343;SDS011;1685;53.104;8.228;2022-11-15T03:40:51;30.23;;;20.27;;
3343;SDS011;1685;53.104;8.228;2022-11-15T03:43:22;33.77;;;20.37;;
3343;SDS011;1685;53.104;8.228;2022-11-15T03:45:55;31.97;;;19.30;;
3343;SDS011;1685;53.104;8.228;2022-11-15T03:48:27;31.37;;;20.37;;
3343;SDS011;1685;53.104;8.228;2022-11-15T03:51:00;42.43;;;21.50;;
3343;SDS011;1685;53.104;8.228;2022-11-15T03:53:27;31.37;;;18.50;;
3343;SDS011;1685;53.104;8.228;2022-11-15T03:55:55;29.73;;;19.70;;
3343;SDS011;1685;53.104;8.228;2022-11-15T03:58:22;33.90;;;19.77;;
3343;SDS011;1685;53.104;8.228;2022-11-15T04:00:49;34.30;;;19.87;;
3343;SDS011;1685;53.104;8.228;2022-11-15T04:03:16;31.87;;;17.73;;
3343;SDS011;1685;53.104;8.228;2022-11-15T04:05:45;35.80;;;18.57;;
3343;SDS011;1685;53.104;8.228;2022-11-15T04:08:12;32.33;;;20.47;;
3343;SDS011;1685;53.104;8.228;2022-11-15T04:10:39;36.87;;;19.30;;
3343;SDS011;1685;53.104;8.228;2022-11-15T04:13:06;32.70;;;19.30;;
3343;SDS011;1685;53.104;8.228;2022-11-15T04:15:33;28.70;;;18.20;;
3343;SDS011;1685;53.104;8.228;2022-11-15T04:18:00;28.17;;;17.67;;
3343;SDS011;1685;53.104;8.228;2022-11-15T04:20:28;30.97;;;17.93;;
3343;SDS011;1685;53.104;8.228;2022-11-15T04:23:15;28.27;;;18.07;;
3343;SDS011;1685;53.104;8.228;2022-11-15T04:26:01;34.60;;;18.73;;
3343;SDS011;1685;53.104;8.228;2022-11-15T04:28:30;25.73;;;17.70;;
3343;SDS011;1685;53.104;8.228;2022-11-15T04:30:57;29.63;;;16.50;;
3343;SDS011;1685;53.104;8.228;2022-11-15T04:33:24;28.67;;;18.27;;
3343;SDS011;1685;53.104;8.228;2022-11-15T04:35:51;30.53;;;16.70;;
3343;SDS011;1685;53.104;8.228;2022-11-15T04:38:37;26.83;;;17.00;;
3343;SDS011;1685;53.104;8.228;2022-11-15T04:41:04;32.73;;;18.70;;
3343;SDS011;1685;53.104;8.228;2022-11-15T04:43:31;34.30;;;18.57;;
3343;SDS011;1685;53.104;8.228;2022-11-15T04:45:58;26.00;;;16.63;;
3343;SDS011;1685;53.104;8.228;2022-11-15T04:48:25;28.07;;;16.77;;
3343;SDS011;1685;53.104;8.228;2022-11-15T04:50:52;24.27;;;15.67;;
3343;SDS011;1685;53.104;8.228;2022-11-15T04:53:19;26.80;;;16.97;;
3343;SDS011;1685;53.104;8.228;2022-11-15T04:55:47;28.80;;;17.90;;
3343;SDS011;1685;53.104;8.228;2022-11-15T04:58:14;28.20;;;16.03;;
3343;SDS011;1685;53.104;8.228;2022-11-15T05:00:41;25.77;;;16.07;;
3343;SDS011;1685;53.104;8.228;2022-11-15T05:03:08;22.87;;;15.70;;
3343;SDS011;1685;53.104;8.228;2022-11-15T05:05:55;22.00;;;15.63;;
3343;SDS011;1685;53.104;8.228;2022-11-15T05:08:23;26.50;;;15.97;;
3343;SDS011;1685;53.104;8.228;2022-11-15T05:10:51;22.20;;;15.53;;
3343;SDS011;1685;53.104;8.228;2022-11-15T05:13:18;23.73;;;15.30;;
3343;SDS011;1685;53.104;8.228;2022-11-15T05:15:45;27.33;;;15.70;;
3343;SDS011;1685;53.104;8.228;2022-11-15T05:18:12;21.00;;;14.57;;
3343;SDS011;1685;53.104;8.228;2022-11-15T05:20:39;22.50;;;14.83;;
3343;SDS011;1685;53.104;8.228;2022-11-15T05:23:06;22.63;;;14.40;;
3343;SDS011;1685;53.104;8.228;2022-11-15T05:25:35;24.57;;;14.10;;
3343;SDS011;1685;53.104;8.228;2022-11-15T05:28:03;18.10;;;14.07;;
3343;SDS011;1685;53.104;8.228;2022-11-15T05:30:30;21.20;;;14.57;;
3343;SDS011;1685;53.104;8.228;2022-11-15T05:32:57;19.33;;;14.27;;
3343;SDS011;1685;53.104;8.228;2022-11-15T05:35:25;26.87;;;14.97;;
3343;SDS011;1685;53.104;8.228;2022-11-15T05:37:56;20.10;;;13.60;;
3343;SDS011;1685;53.104;8.228;2022-11-15T05:40:24;17.30;;;12.43;;
3343;SDS011;1685;53.104;8.228;2022-11-15T05:42:51;18.20;;;13.27;;
3343;SDS011;1685;53.104;8.228;2022-11-15T05:45:19;21.90;;;13.53;;
3343;SDS011;1685;53.104;8.228;2022-11-15T05:47:46;13.33;;;11.57;;
3343;SDS011;1685;53.104;8.228;2022-11-15T05:50:15;19.10;;;12.57;;
3343;SDS011;1685;53.104;8.228;2022-11-15T05:52:44;17.20;;;12.30;;
3343;SDS011;1685;53.104;8.228;2022-11-15T05:55:11;19.23;;;12.83;;
3343;SDS011;1685;53.104;8.228;2022-11-15T05:57:39;20.20;;;12.27;;
3343;SDS011;1685;53.104;8.228;2022-11-15T06:00:07;16.97;;;12.43;;
3343;SDS011;1685;53.104;8.228;2022-11-15T06:02:36;24.23;;;12.67;;
3343;SDS011;1685;53.104;8.228;2022-11-15T06:05:03;21.60;;;13.30;;
3343;SDS011;1685;53.104;8.228;2022-11-15T06:07:30;14.27;;;11.13;;
3343;SDS011;1685;53.104;8.228;2022-11-15T06:09:57;17.43;;;12.27;;
3343;SDS011;1685;53.104;8.228;2022-11-15T06:12:24;19.37;;;12.20;;
3343;SDS011;1685;53.104;8.228;2022-11-15T06:14:51;18.23;;;12.13;;
3343;SDS011;1685;53.104;8.228;2022-11-15T06:17:18;19.30;;;12.90;;
3343;SDS011;1685;53.104;8.228;2022-11-15T06:19:47;18.90;;;13.07;;
3343;SDS011;1685;53.104;8.228;2022-11-15T06:22:13;17.73;;;12.10;;
3343;SDS011;1685;53.104;8.228;2022-11-15T06:24:40;18.50;;;12.00;;
3343;SDS011;1685;53.104;8.228;2022-11-15T06:27:08;16.73;;;11.50;;
3343;SDS011;1685;53.104;8.228;2022-11-15T06:29:35;15.33;;;12.17;;
3343;SDS011;1685;53.104;8.228;2022-11-15T06:32:03;17.27;;;12.87;;
3343;SDS011;1685;53.104;8.228;2022-11-15T06:34:30;16.20;;;12.30;;
3343;SDS011;1685;53.104;8.228;2022-11-15T06:36:58;16.10;;;13.13;;
3343;SDS011;1685;53.104;8.228;2022-11-15T06:39:25;17.73;;;12.03;;
3343;SDS011;1685;53.104;8.228;2022-11-15T06:41:52;13.60;;;10.83;;
3343;SDS011;1685;53.104;8.228;2022-11-15T06:44:19;14.20;;;10.93;;
3343;SDS011;1685;53.104;8.228;2022-11-15T06:46:46;13.30;;;11.43;;
3343;SDS011;1685;53.104;8.228;2022-11-15T06:49:13;18.30;;;11.60;;
3343;SDS011;1685;53.104;8.228;2022-11-15T06:51:40;16.30;;;12.07;;
3343;SDS011;1685;53.104;8.228;2022-11-15T06:54:08;19.17;;;12.23;;
3343;SDS011;1685;53.104;8.228;2022-11-15T06:56:35;16.80;;;11.30;;
3343;SDS011;1685;53.104;8.228;2022-11-15T06:59:02;18.90;;;13.40;;
3343;SDS011;1685;53.104;8.228;2022-11-15T07:01:29;14.93;;;12.50;;
3343;SDS011;1685;53.104;8.228;2022-11-15T07:03:56;17.80;;;12.17;;
3343;SDS011;1685;53.104;8.228;2022-11-15T07:06:23;15.60;;;12.53;;
3343;SDS011;1685;53.104;8.228;2022-11-15T07:08:50;16.30;;;11.63;;
3343;SDS011;1685;53.104;8.228;2022-11-15T07:11:19;21.17;;;12.03;;
3343;SDS011;1685;53.104;8.228;2022-11-15T07:13:45;17.57;;;11.70;;
3343;SDS011;1685;53.104;8.228;2022-11-15T07:16:12;20.90;;;13.27;;
3343;SDS011;1685;53.104;8.228;2022-11-15T07:18:39;17.67;;;13.17;;
3343;SDS011;1685;53.104;8.228;2022-11-15T07:21:08;17.87;;;13.03;;
3343;SDS011;1685;53.104;8.228;2022-11-15T07:23:35;13.97;;;11.37;;
3343;SDS011;1685;53.104;8.228;2022-11-15T07:26:03;18.53;;;11.63;;
3343;SDS011;1685;53.104;8.228;2022-11-15T07:28:31;15.17;;;11.20;;
3343;SDS011;1685;53.104;8.228;2022-11-15T07:31:01;17.53;;;12.37;;
3343;SDS011;1685;53.104;8.228;2022-11-15T07:33:28;14.50;;;11.73;;
3343;SDS011;1685;53.104;8.228;2022-11-15T07:35:58;17.20;;;11.50;;
3343;SDS011;1685;53.104;8.228;2022-11-15T07:38:26;16.33;;;12.60;;
3343;SDS011;1685;53.104;8.228;2022-11-15T07:40:55;17.03;;;12.67;;
3343;SDS011;1685;53.104;8.228;2022-11-15T07:43:22;18.90;;;11.73;;
3343;SDS011;1685;53.104;8.228;2022-11-15T07:45:51;15.17;;;11.07;;
3343;SDS011;1685;53.104;8.228;2022-11-15T07:48:17;17.10;;;12.03;;
3343;SDS011;1685;53.104;8.228;2022-11-15T07:50:44;12.80;;;11.10;;
3343;SDS011;1685;53.104;8.228;2022-11-15T07:53:11;15.77;;;12.03;;
3343;SDS011;1685;53.104;8.228;2022-11-15T07:55:39;17.03;;;12.40;;
3343;SDS011;1685;53.104;8.228;2022-11-15T07:58:07;20.30;;;12.37;;
3343;SDS011;1685;53.104;8.228;2022-11-15T08:00:36;18.53;;;12.30;;
3343;SDS011;1685;53.104;8.228;2022-11-15T08:03:06;12.10;;;10.80;;
3343;SDS011;1685;53.104;8.228;2022-11-15T08:05:34;16.33;;;12.03;;
3343;SDS011;1685;53.104;8.228;2022-11-15T08:08:01;17.13;;;11.70;;
3343;SDS011;1685;53.104;8.228;2022-11-15T08:10:28;21.17;;;12.07;;
3343;SDS011;1685;53.104;8.228;2022-11-15T08:12:59;19.40;;;11.97;;
3343;SDS011;1685;53.104;8.228;2022-11-15T08:15:26;21.73;;;11.33;;
3343;SDS011;1685;53.104;8.228;2022-11-15T08:17:53;14.60;;;11.30;;
3343;SDS011;1685;53.104;8.228;2022-11-15T08:20:22;16.60;;;12.70;;
3343;SDS011;1685;53.104;8.228;2022-11-15T08:22:49;14.53;;;11.00;;
3343;SDS011;1685;53.104;8.228;2022-11-15T08:25:16;14.37;;;11.97;;
3343;SDS011;1685;53.104;8.228;2022-11-15T08:27:43;14.63;;;11.80;;
3343;SDS011;1685;53.104;8.228;2022-11-15T08:30:11;16.73;;;11.70;;
3343;SDS011;1685;53.104;8.228;2022-11-15T08:32:38;15.93;;;11.70;;
3343;SDS011;1685;53.104;8.228;2022-11-15T08:35:06;17.10;;;13.20;;
3343;SDS011;1685;53.104;8.228;2022-11-15T08:37:34;18.40;;;12.37;;
3343;SDS011;1685;53.104;8.228;2022-11-15T08:40:01;14.67;;;11.77;;
3343;SDS011;1685;53.104;8.228;2022-11-15T08:42:28;14.83;;;12.23;;
3343;SDS011;1685;53.104;8.228;2022-11-15T08:44:55;21.07;;;12.00;;
3343;SDS011;1685;53.104;8.228;2022-11-15T08:47:22;16.50;;;11.50;;
3343;SDS011;1685;53.104;8.228;2022-11-15T08:49:49;20.63;;;11.73;;
3343;SDS011;1685;53.104;8.228;2022-11-15T08:52:16;19.50;;;12.10;;
3343;SDS011;1685;53.104;8.228;2022-11-15T08:54:44;19.40;;;12.23;;
3343;SDS011;1685;53.104;8.228;2022-11-15T08:57:10;18.30;;;12.50;;
3343;SDS011;1685;53.104;8.228;2022-11-15T08:59:38;17.27;;;13.20;;
3343;SDS011;1685;53.104;8.228;2022-11-15T09:02:05;18.70;;;12.77;;
3343;SDS011;1685;53.104;8.228;2022-11-15T09:04:32;15.43;;;11.27;;
3343;SDS011;1685;53.104;8.228;2022-11-15T09:06:59;15.10;;;12.10;;
3343;SDS011;1685;53.104;8.228;2022-11-15T09:09:26;16.47;;;11.97;;
3343;SDS011;1685;53.104;8.228;2022-11-15T09:11:54;16.60;;;13.27;;
3343;SDS011;1685;53.104;8.228;2022-11-15T09:14:20;18.50;;;12.80;;
3343;SDS011;1685;53.104;8.228;2022-11-15T09:16:47;15.77;;;12.80;;
3343;SDS011;1685;53.104;8.228;2022-11-15T09:19:14;15.97;;;11.27;;
3343;SDS011;1685;53.104;8.228;2022-11-15T09:21:41;18.63;;;12.40;;
3343;SDS011;1685;53.104;8.228;2022-11-15T09:24:08;16.23;;;11.33;;
3343;SDS011;1685;53.104;8.228;2022-11-15T09:26:35;15.27;;;11.40;;
3343;SDS011;1685;53.104;8.228;2022-11-15T09:29:03;19.50;;;12.93;;
3343;SDS011;1685;53.104;8.228;2022-11-15T09:31:30;18.20;;;12.47;;
3343;SDS011;1685;53.104;8.228;2022-11-15T09:33:57;18.10;;;11.27;;
3343;SDS011;1685;53.104;8.228;2022-11-15T09:36:24;17.00;;;12.63;;
3343;SDS011;1685;53.104;8.228;2022-11-15T09:38:50;16.53;;;13.00;;
3343;SDS011;1685;53.104;8.228;2022-11-15T09:41:22;16.87;;;12.03;;
3343;SDS011;1685;53.104;8.228;2022-11-15T09:44:21;28.07;;;12.30;;
3343;SDS011;1685;53.104;8.228;2022-11-15T09:47:02;16.57;;;12.07;;
3343;SDS011;1685;53.104;8.228;2022-11-15T09:49:50;14.87;;;12.70;;
3343;SDS011;1685;53.104;8.228;2022-11-15T09:52:18;17.90;;;12.60;;
3343;SDS011;1685;53.104;8.228;2022-11-15T09:54:47;14.27;;;12.47;;
3343;SDS011;1685;53.104;8.228;2022-11-15T09:57:16;16.90;;;12.40;;
3343;SDS011;1685;53.104;8.228;2022-11-15T09:59:51;17.83;;;12.47;;
3343;SDS011;1685;53.104;8.228;2022-11-15T10:02:31;16.77;;;12.10;;
3343;SDS011;1685;53.104;8.228;2022-11-15T10:05:20;13.93;;;10.83;;
3343;SDS011;1685;53.104;8.228;2022-11-15T10:07:50;14.63;;;11.63;;
3343;SDS011;1685;53.104;8.228;2022-11-15T10:10:25;20.30;;;11.37;;
3343;SDS011;1685;53.104;8.228;2022-11-15T10:12:55;15.77;;;10.73;;
3343;SDS011;1685;53.104;8.228;2022-11-15T10:15:24;15.13;;;10.90;;
3343;SDS011;1685;53.104;8.228;2022-11-15T10:20:46;14.20;;;11.43;;
3343;SDS011;1685;53.104;8.228;2022-11-15T10:23:14;14.13;;;10.90;;
3343;SDS011;1685;53.104;8.228;2022-11-15T10:25:43;11.70;;;10.30;;
3343;SDS011;1685;53.104;8.228;2022-11-15T10:28:11;12.73;;;9.40;;
3343;SDS011;1685;53.104;8.228;2022-11-15T10:30:43;14.90;;;10.10;;
3343;SDS011;1685;53.104;8.228;2022-11-15T10:33:17;15.13;;;10.13;;
3343;SDS011;1685;53.104;8.228;2022-11-15T10:35:51;12.80;;;9.90;;
3343;SDS011;1685;53.104;8.228;2022-11-15T10:38:52;13.33;;;10.20;;
3343;SDS011;1685;53.104;8.228;2022-11-15T10:41:21;13.43;;;10.13;;
3343;SDS011;1685;53.104;8.228;2022-11-15T10:44:01;12.73;;;9.80;;
3343;SDS011;1685;53.104;8.228;2022-11-15T10:46:45;10.90;;;9.80;;
3343;SDS011;1685;53.104;8.228;2022-11-15T10:49:16;13.23;;;10.73;;
3343;SDS011;1685;53.104;8.228;2022-11-15T10:51:45;15.13;;;9.60;;
3343;SDS011;1685;53.104;8.228;2022-11-15T10:54:14;11.60;;;9.07;;
3343;SDS011;1685;53.104;8.228;2022-11-15T10:56:47;10.67;;;9.67;;
3343;SDS011;1685;53.104;8.228;2022-11-15T10:59:19;11.53;;;8.93;;
3343;SDS011;1685;53.104;8.228;2022-11-15T11:01:51;12.37;;;8.67;;
3343;SDS011;1685;53.104;8.228;2022-11-15T11:04:18;9.37;;;8.43;;
3343;SDS011;1685;53.104;8.228;2022-11-15T11:06:49;9.73;;;8.60;;
3343;SDS011;1685;53.104;8.228;2022-11-15T11:09:30;10.87;;;8.60;;
3343;SDS011;1685;53.104;8.228;2022-11-15T11:11:59;10.37;;;8.67;;
3343;SDS011;1685;53.104;8.228;2022-11-15T11:14:26;10.50;;;8.77;;
3343;SDS011;1685;53.104;8.228;2022-11-15T11:16:59;10.50;;;8.50;;
3343;SDS011;1685;53.104;8.228;2022-11-15T11:19:37;10.43;;;7.90;;
3343;SDS011;1685;53.104;8.228;2022-11-15T11:22:28;10.03;;;7.87;;
3343;SDS011;1685;53.104;8.228;2022-11-15T11:25:04;10.17;;;7.90;;
3343;SDS011;1685;53.104;8.228;2022-11-15T11:27:43;8.23;;;7.00;;
3343;SDS011;1685;53.104;8.228;2022-11-15T11:30:20;8.43;;;7.63;;
3343;SDS011;1685;53.104;8.228;2022-11-15T11:35:45;11.23;;;7.60;;
3343;SDS011;1685;53.104;8.228;2022-11-15T11:38:21;8.30;;;7.20;;
3343;SDS011;1685;53.104;8.228;2022-11-15T11:41:04;7.57;;;6.33;;
3343;SDS011;1685;53.104;8.228;2022-11-15T11:43:41;7.87;;;6.73;;
3343;SDS011;1685;53.104;8.228;2022-11-15T11:46:23;7.53;;;6.83;;
3343;SDS011;1685;53.104;8.228;2022-11-15T11:49:09;9.60;;;7.43;;
3343;SDS011;1685;53.104;8.228;2022-11-15T11:51:39;13.07;;;7.13;;
3343;SDS011;1685;53.104;8.228;2022-11-15T11:54:11;7.00;;;6.30;;
3343;SDS011;1685;53.104;8.228;2022-11-15T11:56:41;7.47;;;5.70;;
3343;SDS011;1685;53.104;8.228;2022-11-15T11:59:12;6.43;;;5.70;;
3343;SDS011;1685;53.104;8.228;2022-11-15T12:01:45;6.73;;;6.03;;
3343;SDS011;1685;53.104;8.228;2022-11-15T12:04:16;5.90;;;5.40;;
3343;SDS011;1685;53.104;8.228;2022-11-15T12:06:46;8.63;;;7.80;;
3343;SDS011;1685;53.104;8.228;2022-11-15T12:09:17;6.80;;;6.10;;
3343;SDS011;1685;53.104;8.228;2022-11-15T12:11:50;6.87;;;5.70;;
3343;SDS011;1685;53.104;8.228;2022-11-15T12:14:24;6.13;;;5.63;;
3343;SDS011;1685;53.104;8.228;2022-11-15T12:16:57;8.80;;;6.03;;
3343;SDS011;1685;53.104;8.228;2022-11-15T12:19:26;7.63;;;5.93;;
3343;SDS011;1685;53.104;8.228;2022-11-15T12:21:55;6.80;;;6.10;;
3343;SDS011;1685;53.104;8.228;2022-11-15T12:24:27;7.53;;;6.20;;
3343;SDS011;1685;53.104;8.228;2022-11-15T12:27:01;7.10;;;5.70;;
3343;SDS011;1685;53.104;8.228;2022-11-15T12:29:33;7.03;;;6.33;;
3343;SDS011;1685;53.104;8.228;2022-11-15T12:32:03;7.43;;;5.50;;
3343;SDS011;1685;53.104;8.228;2022-11-15T12:34:37;4.63;;;4.23;;
3343;SDS011;1685;53.104;8.228;2022-11-15T12:40:21;5.27;;;4.30;;
3343;SDS011;1685;53.104;8.228;2022-11-15T12:43:00;6.07;;;4.93;;
3343;SDS011;1685;53.104;8.228;2022-11-15T12:45:29;4.50;;;4.10;;
3343;SDS011;1685;53.104;8.228;2022-11-15T12:48:44;6.87;;;4.50;;
3343;SDS011;1685;53.104;8.228;2022-11-15T12:51:13;10.23;;;4.47;;
3343;SDS011;1685;53.104;8.228;2022-11-15T12:53:40;6.43;;;5.13;;
3343;SDS011;1685;53.104;8.228;2022-11-15T12:56:22;5.50;;;4.70;;
3343;SDS011;1685;53.104;8.228;2022-11-15T12:58:51;4.40;;;4.03;;
3343;SDS011;1685;53.104;8.228;2022-11-15T13:04:26;6.30;;;4.40;;
3343;SDS011;1685;53.104;8.228;2022-11-15T13:06:56;5.30;;;4.90;;
3343;SDS011;1685;53.104;8.228;2022-11-15T13:15:36;4.80;;;4.50;;
3343;SDS011;1685;53.104;8.228;2022-11-15T13:18:25;4.90;;;4.07;;
3343;SDS011;1685;53.104;8.228;2022-11-15T13:20:57;4.83;;;4.33;;
3343;SDS011;1685;53.104;8.228;2022-11-15T13:23:26;4.80;;;4.43;;
3343;SDS011;1685;53.104;8.228;2022-11-15T13:25:55;4.53;;;4.13;;
3343;SDS011;1685;53.104;8.228;2022-11-15T13:28:33;3.87;;;3.53;;
3343;SDS011;1685;53.104;8.228;2022-11-15T13:31:03;4.30;;;3.90;;
3343;SDS011;1685;53.104;8.228;2022-11-15T13:33:47;4.90;;;4.50;;
3343;SDS011;1685;53.104;8.228;2022-11-15T13:36:15;3.90;;;3.63;;
3343;SDS011;1685;53.104;8.228;2022-11-15T13:38:53;7.60;;;4.20;;
3343;SDS011;1685;53.104;8.228;2022-11-15T13:41:22;6.10;;;3.90;;
3343;SDS011;1685;53.104;8.228;2022-11-15T13:43:51;3.90;;;3.70;;
3343;SDS011;1685;53.104;8.228;2022-11-15T13:46:19;4.30;;;3.50;;
3343;SDS011;1685;53.104;8.228;2022-11-15T13:48:50;3.37;;;3.17;;
3343;SDS011;1685;53.104;8.228;2022-11-15T13:51:21;3.17;;;2.97;;
3343;SDS011;1685;53.104;8.228;2022-11-15T13:53:55;5.27;;;3.30;;
3343;SDS011;1685;53.104;8.228;2022-11-15T13:56:24;3.10;;;2.90;;
3343;SDS011;1685;53.104;8.228;2022-11-15T13:58:53;2.87;;;2.67;;
3343;SDS011;1685;53.104;8.228;2022-11-15T14:01:20;3.80;;;2.97;;
3343;SDS011;1685;53.104;8.228;2022-11-15T14:03:55;3.63;;;3.30;;
3343;SDS011;1685;53.104;8.228;2022-11-15T14:06:24;3.30;;;3.10;;
3343;SDS011;1685;53.104;8.228;2022-11-15T14:12:26;3.87;;;2.70;;
3343;SDS011;1685;53.104;8.228;2022-11-15T14:14:55;3.50;;;3.00;;
3343;SDS011;1685;53.104;8.228;2022-11-15T14:17:32;2.93;;;2.80;;
3343;SDS011;1685;53.104;8.228;2022-11-15T14:20:01;22.53;;;11.27;;
3343;SDS011;1685;53.104;8.228;2022-11-15T14:22:51;8.50;;;5.17;;
3343;SDS011;1685;53.104;8.228;2022-11-15T14:25:18;5.03;;;4.13;;
3343;SDS011;1685;53.104;8.228;2022-11-15T14:30:54;3.13;;;2.93;;
3343;SDS011;1685;53.104;8.228;2022-11-15T14:33:23;7.07;;;5.43;;
3343;SDS011;1685;53.104;8.228;2022-11-15T14:35:53;8.00;;;4.27;;
3343;SDS011;1685;53.104;8.228;2022-11-15T14:38:21;8.47;;;4.97;;
3343;SDS011;1685;53.104;8.228;2022-11-15T14:40:47;4.40;;;3.87;;
3343;SDS011;1685;53.104;8.228;2022-11-15T14:43:16;3.37;;;2.97;;
3343;SDS011;1685;53.104;8.228;2022-11-15T14:45:43;2.90;;;2.70;;
3343;SDS011;1685;53.104;8.228;2022-11-15T14:48:10;4.17;;;2.50;;
3343;SDS011;1685;53.104;8.228;2022-11-15T14:50:36;3.33;;;2.57;;
3343;SDS011;1685;53.104;8.228;2022-11-15T14:53:03;2.60;;;2.50;;
3343;SDS011;1685;53.104;8.228;2022-11-15T14:55:31;3.13;;;2.80;;
3343;SDS011;1685;53.104;8.228;2022-11-15T14:58:00;2.43;;;2.30;;
3343;SDS011;1685;53.104;8.228;2022-11-15T15:00:29;3.10;;;2.90;;
3343;SDS011;1685;53.104;8.228;2022-11-15T15:02:56;3.50;;;3.20;;
3343;SDS011;1685;53.104;8.228;2022-11-15T15:05:24;5.10;;;3.87;;
3343;SDS011;1685;53.104;8.228;2022-11-15T15:07:52;3.10;;;2.80;;
3343;SDS011;1685;53.104;8.228;2022-11-15T15:10:19;10.87;;;3.10;;
3343;SDS011;1685;53.104;8.228;2022-11-15T15:12:46;4.33;;;2.87;;
3343;SDS011;1685;53.104;8.228;2022-11-15T15:15:13;4.17;;;2.60;;
3343;SDS011;1685;53.104;8.228;2022-11-15T15:17:49;6.57;;;2.20;;
3343;SDS011;1685;53.104;8.228;2022-11-15T15:20:16;2.60;;;2.40;;
3343;SDS011;1685;53.104;8.228;2022-11-15T15:22:43;4.83;;;2.80;;
3343;SDS011;1685;53.104;8.228;2022-11-15T15:25:15;3.83;;;2.80;;
3343;SDS011;1685;53.104;8.228;2022-11-15T15:27:47;8.17;;;3.60;;
3343;SDS011;1685;53.104;8.228;2022-11-15T15:30:14;7.93;;;3.03;;
3343;SDS011;1685;53.104;8.228;2022-11-15T15:32:40;5.40;;;3.33;;
3343;SDS011;1685;53.104;8.228;2022-11-15T15:35:11;4.47;;;3.73;;
3343;SDS011;1685;53.104;8.228;2022-11-15T15:37:38;9.50;;;3.57;;
3343;SDS011;1685;53.104;8.228;2022-11-15T15:40:09;4.70;;;3.20;;
3343;SDS011;1685;53.104;8.228;2022-11-15T15:42:39;6.40;;;3.30;;
3343;SDS011;1685;53.104;8.228;2022-11-15T15:45:06;7.60;;;3.23;;